Time;durP1;ratioP1;P1;durP2;ratioP2;P2;SDS_P1;SDS_P2;PMS_P1;PMS_P2;Temp;Humidity;BMP_temperature;BMP_pressure;BME280_temperature;BME280_humidity;BME280_pressure;Samples;Min_cycle;Max_cycle;Signal;HPM_P1;HPM_P2
2023/08/12 00:00:17;;;;;;;9.30;8.60;;;19.30;86.80;;;;;;5021982;28;20165;-91
2023/08/12 00:02:44;;;;;;;10.30;9.00;;;19.30;87.00;;;;;;5020837;28;20169;-90
2023/08/12 00:05:13;;;;;;;9.02;8.20;;;19.30;87.10;;;;;;5039205;28;20188;-88
2023/08/12 00:07:42;;;;;;;11.05;7.85;;;19.30;87.20;;;;;;5039196;28;20197;-90
2023/08/12 00:10:10;;;;;;;13.75;7.88;;;19.30;87.80;;;;;;5036551;28;20166;-91
2023/08/12 00:12:37;;;;;;;9.18;8.25;;;19.30;87.60;;;;;;5019597;28;20185;-91
2023/08/12 00:15:06;;;;;;;8.98;8.27;;;19.40;87.70;;;;;;5020431;28;20232;-91
2023/08/12 00:17:32;;;;;;;9.77;8.88;;;19.40;87.50;;;;;;5018951;28;20166;-91
2023/08/12 00:19:57;;;;;;;8.18;7.55;;;19.40;87.40;;;;;;5034362;28;20172;-91
2023/08/12 00:22:23;;;;;;;10.20;9.30;;;19.40;87.10;;;;;;5020422;28;20181;-91
2023/08/12 00:24:49;;;;;;;10.02;9.23;;;19.50;87.10;;;;;;5038037;28;20205;-91
2023/08/12 00:27:14;;;;;;;9.57;8.88;;;19.50;87.20;;;;;;5016076;28;20204;-92
2023/08/12 00:29:40;;;;;;;10.07;9.15;;;19.50;87.10;;;;;;5019780;28;20181;-91
2023/08/12 00:32:06;;;;;;;9.85;8.13;;;19.40;87.10;;;;;;5016662;28;20172;-92
2023/08/12 00:34:31;;;;;;;9.68;8.57;;;19.40;87.10;;;;;;5018264;28;20228;-91
2023/08/12 00:36:57;;;;;;;15.00;9.70;;;19.40;87.10;;;;;;5038931;28;20158;-89
2023/08/12 00:39:23;;;;;;;12.27;11.05;;;19.40;87.30;;;;;;5020557;28;20233;-90
2023/08/12 00:41:48;;;;;;;9.90;8.95;;;19.50;87.20;;;;;;5022020;28;20193;-92
2023/08/12 00:44:20;;;;;;;14.70;8.55;;;19.40;87.20;;;;;;5021902;28;20185;-92
2023/08/12 00:46:45;;;;;;;10.75;9.73;;;19.40;87.30;;;;;;5022640;28;20197;-92
2023/08/12 00:49:12;;;;;;;11.05;10.20;;;19.40;87.30;;;;;;5025980;28;20149;-91
2023/08/12 00:51:41;;;;;;;9.93;9.13;;;19.30;87.50;;;;;;5025064;28;20193;-91
2023/08/12 00:54:10;;;;;;;10.70;9.90;;;19.30;87.60;;;;;;5025410;28;20184;-89
2023/08/12 00:56:36;;;;;;;11.80;10.48;;;19.20;87.60;;;;;;5025835;28;20193;-90
2023/08/12 00:59:05;;;;;;;11.10;10.10;;;19.20;87.70;;;;;;5025783;28;20173;-89
2023/08/12 01:01:31;;;;;;;11.75;10.70;;;19.20;87.70;;;;;;5025756;28;20201;-88
2023/08/12 01:03:56;;;;;;;11.32;10.25;;;19.20;87.80;;;;;;5025655;28;20153;-89
2023/08/12 01:06:23;;;;;;;12.75;10.90;;;19.10;87.90;;;;;;5025617;28;20189;-90
2023/08/12 01:08:48;;;;;;;12.70;11.32;;;19.10;88.00;;;;;;5025553;28;20186;-87
2023/08/12 01:11:28;;;;;;;12.70;11.70;;;19.10;88.30;;;;;;5042454;28;20146;-88
2023/08/12 01:13:56;;;;;;;12.45;11.35;;;19.00;88.40;;;;;;5025439;28;20157;-90
2023/08/12 01:16:23;;;;;;;11.95;10.38;;;19.00;88.40;;;;;;5025506;28;20174;-91
2023/08/12 01:18:50;;;;;;;10.70;9.90;;;19.00;88.50;;;;;;5025416;28;20193;-90
2023/08/12 01:21:17;;;;;;;11.25;10.38;;;19.00;88.50;;;;;;5042283;28;20169;-90
2023/08/12 01:23:44;;;;;;;12.25;11.05;;;19.00;88.50;;;;;;5042166;28;20184;-90
2023/08/12 01:26:10;;;;;;;11.77;10.77;;;19.00;88.40;;;;;;5025271;28;20169;-89
2023/08/12 01:28:35;;;;;;;11.88;11.02;;;19.10;88.50;;;;;;5025210;28;20256;-90
2023/08/12 01:31:11;;;;;;;12.00;10.95;;;19.10;88.40;;;;;;5025091;28;20257;-90
2023/08/12 01:33:58;;;;;;;12.52;11.63;;;19.10;88.40;;;;;;5025116;28;20188;-89
2023/08/12 01:36:27;;;;;;;13.23;12.05;;;19.10;88.40;;;;;;5025139;28;20165;-91
2023/08/12 01:38:56;;;;;;;12.82;11.48;;;19.10;88.30;;;;;;5025087;28;20266;-89
2023/08/12 01:41:23;;;;;;;10.52;9.70;;;19.10;88.30;;;;;;5025050;28;20233;-89
2023/08/12 01:43:49;;;;;;;14.52;10.27;;;19.00;88.30;;;;;;5024967;28;20173;-90
2023/08/12 01:46:15;;;;;;;14.57;10.38;;;19.00;88.40;;;;;;5041766;28;20156;-89
2023/08/12 01:48:40;;;;;;;10.18;9.32;;;19.00;88.40;;;;;;5041650;28;20184;-90
2023/08/12 01:51:06;;;;;;;11.82;9.85;;;19.00;88.30;;;;;;5024901;28;20192;-89
2023/08/12 01:53:31;;;;;;;11.10;10.10;;;19.00;88.50;;;;;;5024864;28;20164;-89
2023/08/12 01:55:57;;;;;;;11.50;10.40;;;19.00;88.60;;;;;;5024754;28;20205;-89
2023/08/12 01:58:22;;;;;;;10.52;9.63;;;19.00;88.60;;;;;;5023393;28;20162;-88
2023/08/12 02:00:48;;;;;;;10.93;9.65;;;19.00;88.60;;;;;;5024719;28;20180;-90
2023/08/12 02:03:13;;;;;;;11.07;9.45;;;19.00;88.60;;;;;;5024650;28;20172;-89
2023/08/12 02:05:40;;;;;;;11.63;10.40;;;19.00;88.40;;;;;;5024603;28;20178;-89
2023/08/12 02:08:06;;;;;;;18.73;17.27;;;18.90;88.50;;;;;;5024488;28;20209;-89
2023/08/12 02:10:32;;;;;;;20.60;18.60;;;18.80;88.70;;;;;;5024580;28;20172;-90
2023/08/12 02:12:57;;;;;;;21.33;19.27;;;18.80;88.80;;;;;;5024549;28;20180;-90
2023/08/12 02:15:23;;;;;;;10.70;9.70;;;18.70;89.20;;;;;;5041162;28;20177;-90
2023/08/12 02:17:49;;;;;;;10.80;9.75;;;18.70;89.30;;;;;;5041188;28;20177;-90
2023/08/12 02:20:14;;;;;;;17.40;16.00;;;18.60;89.50;;;;;;5024320;28;20162;-88
2023/08/12 02:22:40;;;;;;;18.15;16.73;;;18.60;89.50;;;;;;5024189;28;20237;-89
2023/08/12 02:25:05;;;;;;;19.65;18.25;;;18.70;89.60;;;;;;5024220;28;20185;-91
2023/08/12 02:27:31;;;;;;;10.73;9.63;;;18.70;89.60;;;;;;5024064;28;20205;-91
2023/08/12 02:29:57;;;;;;;9.93;9.13;;;18.70;89.40;;;;;;5024127;28;20256;-90
2023/08/12 02:32:22;;;;;;;10.52;9.43;;;18.60;89.40;;;;;;5023976;28;20165;-90
2023/08/12 02:34:48;;;;;;;11.43;9.95;;;18.60;89.40;;;;;;5024049;28;20246;-90
2023/08/12 02:37:14;;;;;;;10.77;9.77;;;18.60;89.40;;;;;;5007894;28;20192;-90
2023/08/12 02:39:40;;;;;;;11.07;10.07;;;18.70;89.40;;;;;;5023860;28;20169;-92
2023/08/12 02:42:06;;;;;;;11.35;10.45;;;18.70;89.40;;;;;;5023945;28;20190;-90
2023/08/12 02:44:31;;;;;;;12.43;11.38;;;18.80;89.30;;;;;;5023792;28;20166;-91
2023/08/12 02:46:57;;;;;;;13.13;12.13;;;18.80;89.30;;;;;;5040651;28;20220;-92
2023/08/12 02:49:22;;;;;;;14.07;12.90;;;18.80;89.30;;;;;;5023803;28;20158;-91
2023/08/12 02:51:48;;;;;;;14.63;12.05;;;18.80;89.30;;;;;;5023803;28;20161;-89
2023/08/12 02:54:13;;;;;;;13.63;12.43;;;18.80;89.30;;;;;;5023727;28;20174;-90
2023/08/12 02:56:40;;;;;;;17.27;14.40;;;18.80;89.30;;;;;;5023559;28;20193;-91
2023/08/12 02:59:05;;;;;;;17.48;15.77;;;18.90;89.50;;;;;;5023590;28;20178;-90
2023/08/12 03:01:31;;;;;;;15.48;14.07;;;18.90;89.50;;;;;;5023621;28;20168;-91
2023/08/12 03:03:56;;;;;;;17.75;15.95;;;18.90;89.40;;;;;;5023484;28;20181;-91
2023/08/12 03:06:22;;;;;;;17.92;16.33;;;18.90;89.60;;;;;;5023308;28;20165;-89
2023/08/12 03:08:47;;;;;;;19.70;15.20;;;18.90;89.80;;;;;;5023420;28;20181;-91
2023/08/12 03:11:13;;;;;;;17.15;15.55;;;19.00;89.80;;;;;;5023026;28;20181;-89
2023/08/12 03:13:39;;;;;;;15.52;14.15;;;18.90;89.80;;;;;;5023301;28;20201;-90
2023/08/12 03:16:04;;;;;;;18.67;16.02;;;18.90;89.80;;;;;;5040008;28;20174;-91
2023/08/12 03:18:30;;;;;;;17.35;15.60;;;18.90;89.90;;;;;;5023306;28;20165;-91
2023/08/12 03:20:55;;;;;;;19.23;17.23;;;18.90;89.90;;;;;;5039937;28;20189;-90
2023/08/12 03:23:21;;;;;;;21.52;18.38;;;18.90;90.10;;;;;;5040037;28;20162;-90
2023/08/12 03:25:48;;;;;;;20.70;18.83;;;18.90;90.20;;;;;;5022990;28;20256;-90
2023/08/12 03:28:14;;;;;;;20.65;18.58;;;18.80;90.30;;;;;;5022991;28;20256;-90
2023/08/12 03:30:39;;;;;;;21.63;19.48;;;18.80;90.30;;;;;;5022782;28;20192;-90
2023/08/12 03:33:05;;;;;;;21.60;19.70;;;18.70;90.40;;;;;;5039631;28;20209;-89
2023/08/12 03:35:30;;;;;;;21.17;18.67;;;18.80;90.40;;;;;;5022872;28;20181;-92
2023/08/12 03:37:56;;;;;;;18.33;16.58;;;18.70;90.50;;;;;;5022936;28;20153;-92
2023/08/12 03:40:22;;;;;;;18.98;17.23;;;18.70;90.50;;;;;;5022841;28;20161;-91
2023/08/12 03:42:47;;;;;;;19.05;17.35;;;18.70;90.40;;;;;;5039603;28;20181;-91
2023/08/12 03:45:13;;;;;;;17.67;16.27;;;18.70;90.50;;;;;;5022712;28;20208;-90
2023/08/12 03:47:38;;;;;;;18.30;16.77;;;18.70;90.60;;;;;;5022755;28;20216;-92
2023/08/12 03:50:05;;;;;;;19.50;17.05;;;18.70;90.60;;;;;;5039601;28;20142;-92
2023/08/12 03:52:30;;;;;;;17.23;15.57;;;18.60;90.50;;;;;;5022661;28;20180;-90
2023/08/12 03:54:56;;;;;;;19.70;16.45;;;18.50;90.50;;;;;;5039464;28;20225;-91
2023/08/12 03:57:22;;;;;;;17.17;15.68;;;18.60;90.60;;;;;;5039347;28;20185;-91
2023/08/12 03:59:47;;;;;;;18.88;16.98;;;18.50;90.70;;;;;;5022444;28;20166;-90
2023/08/12 04:02:13;;;;;;;20.83;18.75;;;18.50;90.70;;;;;;5039446;28;20165;-91
2023/08/12 04:04:38;;;;;;;22.77;20.58;;;18.50;90.60;;;;;;5022387;28;20205;-91
2023/08/12 04:07:04;;;;;;;22.65;20.60;;;18.60;90.70;;;;;;5022339;28;20284;-90
2023/08/12 04:09:29;;;;;;;21.63;19.73;;;18.50;90.70;;;;;;5022363;28;20161;-88
2023/08/12 04:11:55;;;;;;;23.52;21.40;;;18.50;90.80;;;;;;5039309;28;20181;-90
2023/08/12 04:14:20;;;;;;;23.83;21.73;;;18.40;90.80;;;;;;5022288;28;20181;-92
2023/08/12 04:16:46;;;;;;;24.52;22.10;;;18.40;91.00;;;;;;5022370;28;20164;-89
2023/08/12 04:19:12;;;;;;;27.35;21.13;;;18.30;91.30;;;;;;5022253;28;20189;-90
2023/08/12 04:21:37;;;;;;;24.85;21.23;;;18.30;91.60;;;;;;5021526;28;20169;-91
2023/08/12 04:24:03;;;;;;;24.08;21.70;;;18.30;91.70;;;;;;5022174;28;20170;-91
2023/08/12 04:26:29;;;;;;;24.52;21.83;;;18.20;91.80;;;;;;5022040;28;20181;-88
2023/08/12 04:28:54;;;;;;;24.70;21.75;;;18.20;91.90;;;;;;5039112;28;20153;-92
2023/08/12 04:31:20;;;;;;;21.23;19.05;;;18.20;91.90;;;;;;5022208;28;20172;-91
2023/08/12 04:33:45;;;;;;;21.67;19.55;;;18.20;92.00;;;;;;5021960;28;20253;-90
2023/08/12 04:36:11;;;;;;;21.25;19.13;;;18.20;92.00;;;;;;5039036;28;20153;-91
2023/08/12 04:38:37;;;;;;;23.77;20.67;;;18.20;92.00;;;;;;5038993;28;20153;-91
2023/08/12 04:41:02;;;;;;;23.98;21.48;;;18.20;92.10;;;;;;5022018;28;20165;-90
2023/08/12 04:43:28;;;;;;;23.00;20.70;;;18.30;92.20;;;;;;5022135;28;20165;-91
2023/08/12 04:45:53;;;;;;;24.65;21.48;;;18.40;92.20;;;;;;5020700;28;20185;-93
2023/08/12 04:48:19;;;;;;;22.40;20.23;;;18.40;92.10;;;;;;5035361;28;20235;-92
2023/08/12 04:50:44;;;;;;;23.92;21.55;;;18.40;92.00;;;;;;5034512;28;20177;-93
2023/08/12 04:53:10;;;;;;;24.02;21.75;;;18.40;91.90;;;;;;5015510;28;20633;-93
2023/08/12 04:55:36;;;;;;;24.27;21.30;;;18.40;92.00;;;;;;5011595;28;20201;-93
2023/08/12 04:58:02;;;;;;;24.52;20.63;;;18.40;92.00;;;;;;5007774;28;20185;-93
2023/08/12 05:00:28;;;;;;;23.20;20.85;;;18.40;92.00;;;;;;5002683;28;20565;-91
2023/08/12 05:02:54;;;;;;;22.65;19.67;;;18.50;92.00;;;;;;5000756;28;20177;-92
2023/08/12 05:05:19;;;;;;;23.48;21.10;;;18.50;92.00;;;;;;5000448;28;20296;-92
2023/08/12 05:07:48;;;;;;;24.63;22.20;;;18.50;91.90;;;;;;4997978;28;20201;-92
2023/08/12 05:10:17;;;;;;;26.40;23.52;;;18.60;92.00;;;;;;5016284;28;20178;-92
2023/08/12 05:12:44;;;;;;;24.88;22.58;;;18.60;92.00;;;;;;5015800;28;20170;-92
2023/08/12 05:15:10;;;;;;;41.85;30.73;;;18.60;92.20;;;;;;4997785;28;20204;-92
2023/08/12 05:17:36;;;;;;;34.17;30.85;;;18.60;92.30;;;;;;5017628;28;20252;-92
2023/08/12 05:20:03;;;;;;;32.55;29.20;;;18.60;92.50;;;;;;5001737;28;20213;-92
2023/08/12 05:22:28;;;;;;;27.42;24.42;;;18.70;92.40;;;;;;5015573;28;20612;-92
2023/08/12 05:24:54;;;;;;;28.58;24.63;;;18.70;92.40;;;;;;5015109;28;20220;-92
2023/08/12 05:27:19;;;;;;;36.63;32.70;;;18.60;92.50;;;;;;5015725;28;20224;-92
2023/08/12 05:29:45;;;;;;;37.78;34.05;;;18.70;92.70;;;;;;5016280;28;20188;-92
2023/08/12 05:32:10;;;;;;;32.13;28.67;;;18.70;92.80;;;;;;5014900;28;20300;-92
2023/08/12 05:34:36;;;;;;;32.15;27.60;;;18.70;92.90;;;;;;5017643;28;20205;-92
2023/08/12 05:37:01;;;;;;;34.78;26.70;;;18.70;93.00;;;;;;5017706;28;20177;-92
2023/08/12 05:39:27;;;;;;;32.67;27.42;;;18.70;93.00;;;;;;5017551;28;20173;-92
2023/08/12 05:41:53;;;;;;;26.92;24.30;;;18.70;93.10;;;;;;5017336;28;20552;-92
2023/08/12 05:44:18;;;;;;;36.60;26.15;;;18.70;93.20;;;;;;4999995;28;20193;-92
2023/08/12 05:46:44;;;;;;;32.10;28.70;;;18.70;93.30;;;;;;5000028;28;20205;-92
2023/08/12 05:49:09;;;;;;;33.90;27.58;;;18.70;93.30;;;;;;5016903;28;20170;-92
2023/08/12 05:51:35;;;;;;;33.63;30.02;;;18.70;93.40;;;;;;5000252;28;20180;-91
2023/08/12 05:54:00;;;;;;;32.45;29.15;;;18.80;93.40;;;;;;5000036;28;20209;-91
2023/08/12 05:56:26;;;;;;;32.40;29.15;;;18.80;93.40;;;;;;5017386;28;20177;-92
2023/08/12 05:58:52;;;;;;;37.30;31.05;;;18.80;93.40;;;;;;5017069;28;20243;-91
2023/08/12 06:01:18;;;;;;;32.00;28.75;;;18.80;93.40;;;;;;5017264;28;20169;-91
2023/08/12 06:03:44;;;;;;;35.63;31.90;;;18.80;93.50;;;;;;5016685;28;20522;-90
2023/08/12 06:06:09;;;;;;;34.58;30.88;;;18.80;93.50;;;;;;4998796;28;20376;-91
2023/08/12 06:08:35;;;;;;;37.80;32.85;;;18.80;93.50;;;;;;4998703;28;20665;-91
2023/08/12 06:11:01;;;;;;;38.92;33.70;;;18.80;93.50;;;;;;4998625;28;20256;-91
2023/08/12 06:13:26;;;;;;;43.33;36.10;;;18.80;93.60;;;;;;4998740;28;20188;-92
2023/08/12 06:15:52;;;;;;;39.00;34.95;;;18.80;93.70;;;;;;5016000;28;20236;-92
2023/08/12 06:18:17;;;;;;;44.25;36.65;;;18.80;93.80;;;;;;5016150;28;20177;-92
2023/08/12 06:20:43;;;;;;;38.67;34.67;;;18.90;93.80;;;;;;5015800;28;20181;-92
2023/08/12 06:23:08;;;;;;;40.33;35.67;;;18.90;93.90;;;;;;4998451;28;20189;-92
2023/08/12 06:25:36;;;;;;;42.55;36.50;;;18.90;93.90;;;;;;5015898;28;20189;-92
2023/08/12 06:28:03;;;;;;;44.67;40.00;;;18.90;93.90;;;;;;5016717;28;20688;-92
2023/08/12 06:30:29;;;;;;;44.45;39.80;;;19.10;94.00;;;;;;4998299;28;20181;-92
2023/08/12 06:32:55;;;;;;;45.75;40.63;;;19.20;94.00;;;;;;5015672;28;20554;-91
2023/08/12 06:35:20;;;;;;;46.47;38.75;;;19.20;94.00;;;;;;5015727;28;20197;-91
2023/08/12 06:37:46;;;;;;;45.80;41.03;;;19.20;93.90;;;;;;4998083;28;20177;-92
2023/08/12 06:40:11;;;;;;;45.67;40.97;;;19.20;94.00;;;;;;5016283;28;20170;-91
2023/08/12 06:42:37;;;;;;;45.83;41.00;;;19.20;93.90;;;;;;5015696;28;20184;-91
2023/08/12 06:45:03;;;;;;;47.42;42.53;;;19.20;93.90;;;;;;5014790;28;20197;-91
2023/08/12 06:47:29;;;;;;;45.78;41.22;;;19.20;94.00;;;;;;5015388;28;20205;-92
2023/08/12 06:49:55;;;;;;;46.65;41.97;;;19.20;94.00;;;;;;5015301;28;20553;-91
2023/08/12 06:52:21;;;;;;;44.58;39.97;;;19.20;94.00;;;;;;5015298;28;20181;-92
2023/08/12 06:54:46;;;;;;;47.63;41.78;;;19.30;94.00;;;;;;5015539;28;20185;-91
2023/08/12 06:57:12;;;;;;;47.63;42.70;;;19.30;94.10;;;;;;5015550;28;20165;-91
2023/08/12 06:59:38;;;;;;;47.70;42.28;;;19.30;94.00;;;;;;5015584;28;20253;-92
2023/08/12 07:02:05;;;;;;;45.28;40.40;;;19.30;94.10;;;;;;5015838;28;20226;-91
2023/08/12 07:04:30;;;;;;;46.15;41.47;;;19.40;94.10;;;;;;4998064;28;20575;-92
2023/08/12 07:06:56;;;;;;;47.10;42.28;;;19.40;94.20;;;;;;5016009;28;20189;-91
2023/08/12 07:09:22;;;;;;;46.78;42.00;;;19.40;94.20;;;;;;4998121;28;20184;-92
2023/08/12 07:11:47;;;;;;;46.92;42.13;;;19.50;94.30;;;;;;4998498;28;20622;-92
2023/08/12 07:14:13;;;;;;;49.13;43.22;;;19.50;94.20;;;;;;4999036;28;20190;-92
2023/08/12 07:16:39;;;;;;;45.65;40.88;;;19.60;94.30;;;;;;5015587;28;20550;-92
2023/08/12 07:19:04;;;;;;;45.42;40.83;;;19.60;94.30;;;;;;4998025;28;20178;-92
2023/08/12 07:21:30;;;;;;;48.90;43.95;;;19.70;94.30;;;;;;4998305;28;20220;-92
2023/08/12 07:23:55;;;;;;;47.20;42.80;;;19.70;94.40;;;;;;4999576;28;20621;-93
2023/08/12 07:26:21;;;;;;;47.15;42.72;;;19.70;94.40;;;;;;4997877;28;20189;-92
2023/08/12 07:28:47;;;;;;;42.90;38.45;;;19.70;94.40;;;;;;4999208;28;20215;-94
2023/08/12 07:31:13;;;;;;;43.80;38.78;;;19.80;94.40;;;;;;4998355;28;20173;-94
2023/08/12 07:33:38;;;;;;;43.67;38.03;;;19.80;94.50;;;;;;4998684;28;20675;-93
2023/08/12 07:36:04;;;;;;;41.88;37.35;;;19.90;94.50;;;;;;5016956;28;20220;-94
2023/08/12 07:38:29;;;;;;;39.72;35.83;;;19.90;94.50;;;;;;5016209;28;20181;-94
2023/08/12 07:40:55;;;;;;;39.15;35.28;;;20.00;94.50;;;;;;4998473;28;20181;-93
2023/08/12 07:43:20;;;;;;;43.88;36.42;;;20.10;94.60;;;;;;4997994;28;20213;-93
2023/08/12 07:45:52;;;;;;;40.85;36.40;;;20.20;94.50;;;;;;5016000;28;20200;-93
2023/08/12 07:48:18;;;;;;;40.20;36.28;;;20.20;94.50;;;;;;4998141;28;20201;-91
2023/08/12 07:50:43;;;;;;;40.60;36.28;;;20.20;94.40;;;;;;5017285;28;20165;-94
2023/08/12 07:53:09;;;;;;;42.47;35.40;;;20.30;94.40;;;;;;4999340;28;20541;-93
2023/08/12 07:55:34;;;;;;;37.05;32.05;;;20.30;94.40;;;;;;4999455;28;20197;-93
2023/08/12 07:58:00;;;;;;;35.65;32.00;;;20.40;94.40;;;;;;4999555;28;20177;-92
2023/08/12 08:00:26;;;;;;;33.15;29.63;;;20.50;94.40;;;;;;5015043;28;20182;-92
2023/08/12 08:02:51;;;;;;;35.95;32.90;;;20.60;94.30;;;;;;4997913;28;20555;-91
2023/08/12 08:05:17;;;;;;;37.03;33.83;;;20.50;94.20;;;;;;5014475;28;20624;-92
2023/08/12 08:07:42;;;;;;;43.85;39.90;;;20.50;94.00;;;;;;5013883;28;20280;-91
2023/08/12 08:10:08;;;;;;;33.78;30.67;;;20.60;94.00;;;;;;5014799;28;20531;-93
2023/08/12 08:12:34;;;;;;;33.05;29.55;;;20.70;93.90;;;;;;5014985;28;20173;-92
2023/08/12 08:14:59;;;;;;;32.88;30.08;;;20.70;93.70;;;;;;5015197;28;20200;-92
2023/08/12 08:17:25;;;;;;;35.95;32.95;;;20.80;93.80;;;;;;5015847;28;20177;-93
2023/08/12 08:19:50;;;;;;;37.65;34.63;;;20.80;93.50;;;;;;5018616;28;20178;-94
2023/08/12 08:22:16;;;;;;;26.45;24.25;;;20.80;93.40;;;;;;4983758;28;20212;-93
2023/08/12 08:24:41;;;;;;;27.35;25.05;;;20.80;93.10;;;;;;4997782;28;20200;-93
2023/08/12 08:27:07;;;;;;;33.05;30.30;;;20.80;93.00;;;;;;5015437;28;20677;-92
2023/08/12 08:29:33;;;;;;;32.88;30.27;;;21.00;93.00;;;;;;4996928;28;20626;-93
2023/08/12 08:31:58;;;;;;;32.80;30.05;;;20.90;92.50;;;;;;4997626;28;20668;-92
2023/08/12 08:34:24;;;;;;;20.63;18.80;;;21.00;92.60;;;;;;5014799;28;20244;-93
2023/08/12 08:36:50;;;;;;;18.20;16.63;;;21.00;92.00;;;;;;4999180;28;20191;-93
2023/08/12 08:39:16;;;;;;;16.95;15.55;;;21.00;91.90;;;;;;5000248;28;20178;-93
2023/08/12 08:41:43;;;;;;;17.17;15.55;;;21.00;91.50;;;;;;4999931;28;20177;-94
2023/08/12 08:44:09;;;;;;;17.23;15.80;;;21.20;91.60;;;;;;5018067;28;20215;-94
2023/08/12 08:46:35;;;;;;;18.92;17.27;;;21.30;91.10;;;;;;5018362;28;20193;-93
2023/08/12 08:49:01;;;;;;;17.45;15.98;;;21.40;90.60;;;;;;5008961;28;20189;-93
2023/08/12 08:51:31;;;;;;;17.15;15.77;;;21.30;90.10;;;;;;5029316;28;20181;-93
2023/08/12 08:53:58;;;;;;;16.83;15.43;;;21.30;90.30;;;;;;5018897;28;20173;-92
2023/08/12 08:56:24;;;;;;;16.50;15.10;;;21.50;90.10;;;;;;5019015;28;20237;-90
2023/08/12 08:58:50;;;;;;;16.65;15.25;;;21.30;89.60;;;;;;5016111;28;20173;-92
2023/08/12 09:01:19;;;;;;;15.07;13.88;;;21.40;89.90;;;;;;5014192;28;20630;-92
2023/08/12 09:03:46;;;;;;;15.43;14.05;;;21.40;89.60;;;;;;5015457;28;20181;-91
2023/08/12 09:06:12;;;;;;;17.23;15.55;;;21.50;90.00;;;;;;5013626;28;20197;-92
2023/08/12 09:08:42;;;;;;;16.75;14.98;;;21.60;89.90;;;;;;5017148;28;20676;-93
2023/08/12 09:11:08;;;;;;;17.70;15.85;;;21.70;89.70;;;;;;5024602;28;20173;-93
2023/08/12 09:13:34;;;;;;;17.77;16.20;;;21.70;89.60;;;;;;5003164;28;20181;-93
2023/08/12 09:15:59;;;;;;;15.95;14.35;;;21.50;89.50;;;;;;5005979;28;20247;-92
2023/08/12 09:18:26;;;;;;;17.23;15.43;;;21.40;89.70;;;;;;5017102;28;20181;-92
2023/08/12 09:20:51;;;;;;;16.00;14.63;;;21.40;90.00;;;;;;5018536;28;20184;-92
2023/08/12 09:23:18;;;;;;;16.08;14.57;;;21.50;90.10;;;;;;5019204;28;20241;-93
2023/08/12 09:25:44;;;;;;;15.30;14.00;;;21.40;89.90;;;;;;5018074;28;20193;-93
2023/08/12 09:28:10;;;;;;;15.30;13.85;;;21.50;90.20;;;;;;5018082;28;20201;-93
2023/08/12 09:30:39;;;;;;;18.50;15.57;;;21.60;90.00;;;;;;5000694;28;20186;-93
2023/08/12 09:33:10;;;;;;;17.98;16.25;;;21.50;89.50;;;;;;5020348;28;20169;-94
2023/08/12 09:35:38;;;;;;;18.25;16.45;;;21.50;89.70;;;;;;5034604;28;20192;-94
2023/08/12 09:38:13;;;;;;;17.27;15.68;;;21.50;89.60;;;;;;5027444;28;20261;-93
2023/08/12 09:40:39;;;;;;;24.02;22.08;;;21.30;89.70;;;;;;5006327;28;20181;-93
2023/08/12 09:43:05;;;;;;;24.17;22.02;;;21.20;90.20;;;;;;5018651;28;20189;-92
2023/08/12 09:45:32;;;;;;;24.85;22.77;;;21.00;90.60;;;;;;5016190;28;20236;-92
2023/08/12 09:47:58;;;;;;;17.77;16.20;;;20.80;90.80;;;;;;5016300;28;20570;-91
2023/08/12 09:50:25;;;;;;;17.20;15.60;;;20.90;91.10;;;;;;5017128;28;20173;-93
2023/08/12 09:52:52;;;;;;;18.25;16.65;;;20.80;91.20;;;;;;5016882;28;20169;-92
2023/08/12 09:55:19;;;;;;;18.40;16.63;;;20.70;91.40;;;;;;5015986;28;20185;-92
2023/08/12 09:57:54;;;;;;;20.58;18.33;;;20.80;91.60;;;;;;5017504;28;20711;-92
2023/08/12 10:00:22;;;;;;;19.90;18.17;;;20.70;91.90;;;;;;5000654;28;20177;-93
2023/08/12 10:02:49;;;;;;;21.42;19.38;;;20.70;92.00;;;;;;4998406;28;20276;-92
2023/08/12 10:05:32;;;;;;;21.80;19.98;;;20.80;92.10;;;;;;5015937;28;20185;-92
2023/08/12 10:07:58;;;;;;;30.10;27.70;;;20.70;92.10;;;;;;5016189;28;20569;-93
2023/08/12 10:10:25;;;;;;;31.38;28.65;;;20.70;92.20;;;;;;5016369;28;20165;-93
2023/08/12 10:12:51;;;;;;;28.42;25.88;;;20.70;92.20;;;;;;4998770;28;20671;-90
2023/08/12 10:15:18;;;;;;;28.92;26.23;;;20.80;92.60;;;;;;5015856;28;20189;-92
2023/08/12 10:17:45;;;;;;;29.63;27.10;;;20.90;92.50;;;;;;4998489;28;20188;-89
2023/08/12 10:20:22;;;;;;;35.30;32.50;;;20.80;92.70;;;;;;5014679;28;20178;-92
2023/08/12 10:22:49;;;;;;;35.60;32.55;;;20.90;92.50;;;;;;5015800;28;20237;-90
2023/08/12 10:25:16;;;;;;;26.52;24.05;;;20.70;92.60;;;;;;5016095;28;20205;-89
2023/08/12 10:27:41;;;;;;;29.42;26.83;;;20.70;92.60;;;;;;5016138;28;20197;-91
2023/08/12 10:30:07;;;;;;;29.10;26.58;;;20.60;92.70;;;;;;5016246;28;20544;-91
2023/08/12 10:32:33;;;;;;;32.78;29.95;;;20.50;92.90;;;;;;5015565;28;20185;-91
2023/08/12 10:35:00;;;;;;;29.55;26.95;;;20.40;93.10;;;;;;5015499;28;20736;-91
2023/08/12 10:37:26;;;;;;;21.42;19.67;;;20.20;93.10;;;;;;5015355;28;20227;-91
2023/08/12 10:39:55;;;;;;;24.30;19.73;;;20.20;93.30;;;;;;5015350;28;20172;-91
2023/08/12 10:42:43;;;;;;;25.73;23.52;;;20.20;93.30;;;;;;5015351;28;20708;-91
2023/08/12 10:45:13;;;;;;;25.60;23.45;;;20.10;93.50;;;;;;5018934;28;20620;-91
2023/08/12 10:47:41;;;;;;;19.45;17.85;;;20.20;93.60;;;;;;5015837;28;20201;-90
2023/08/12 10:50:17;;;;;;;19.40;17.55;;;20.20;93.60;;;;;;4998322;28;20174;-90
2023/08/12 10:52:45;;;;;;;20.20;18.13;;;20.10;93.70;;;;;;4998135;28;20158;-90
2023/08/12 10:55:27;;;;;;;21.15;19.08;;;20.30;93.90;;;;;;5015732;28;20189;-90
2023/08/12 10:57:55;;;;;;;18.42;16.83;;;20.40;93.90;;;;;;5015647;28;20173;-91
2023/08/12 11:00:24;;;;;;;18.48;16.90;;;20.50;93.90;;;;;;5015874;28;20216;-90
2023/08/12 11:02:54;;;;;;;20.15;18.45;;;20.50;93.80;;;;;;5014986;28;20177;-89
2023/08/12 11:05:20;;;;;;;20.33;18.63;;;20.70;93.90;;;;;;5014693;28;20208;-90
2023/08/12 11:07:51;;;;;;;21.77;20.02;;;20.80;93.70;;;;;;5014902;28;20197;-91
2023/08/12 11:10:22;;;;;;;22.42;20.63;;;20.80;93.60;;;;;;5015543;28;20173;-90
2023/08/12 11:12:57;;;;;;;22.52;20.70;;;20.70;93.30;;;;;;4997323;28;20166;-90
2023/08/12 11:15:38;;;;;;;24.13;22.27;;;20.70;93.20;;;;;;5014894;28;20700;-90
2023/08/12 11:18:05;;;;;;;25.48;23.27;;;20.70;93.00;;;;;;5015006;28;20167;-91
2023/08/12 11:20:32;;;;;;;26.08;24.08;;;20.70;92.80;;;;;;5014941;28;20177;-89
2023/08/12 11:22:59;;;;;;;25.98;24.05;;;20.70;92.80;;;;;;5015108;28;20726;-91
2023/08/12 11:25:25;;;;;;;23.75;22.00;;;20.70;92.80;;;;;;5014567;28;20248;-88
2023/08/12 11:27:51;;;;;;;25.58;23.63;;;20.80;92.90;;;;;;4996824;28;20216;-89
2023/08/12 11:30:20;;;;;;;24.75;22.67;;;20.80;92.80;;;;;;5014096;28;20201;-89
2023/08/12 11:32:47;;;;;;;24.20;22.42;;;20.70;92.60;;;;;;5014206;28;20178;-89
2023/08/12 11:35:15;;;;;;;24.25;22.30;;;20.70;92.70;;;;;;5014216;28;20190;-90
2023/08/12 11:37:43;;;;;;;26.98;24.73;;;20.70;92.60;;;;;;5014325;28;20243;-89
2023/08/12 11:40:10;;;;;;;26.67;24.58;;;20.70;92.80;;;;;;5014443;28;20177;-90
2023/08/12 11:42:39;;;;;;;26.65;24.42;;;20.70;92.60;;;;;;5014022;28;20184;-90
2023/08/12 11:45:06;;;;;;;28.45;25.90;;;20.80;92.70;;;;;;5014007;28;20192;-88
2023/08/12 11:47:33;;;;;;;26.75;24.70;;;20.80;92.60;;;;;;5014610;28;20220;-91
2023/08/12 11:49:58;;;;;;;28.45;26.17;;;20.80;92.40;;;;;;5013982;28;20161;-90
2023/08/12 11:52:25;;;;;;;29.30;27.20;;;20.80;92.40;;;;;;5014274;28;20173;-90
2023/08/12 11:54:51;;;;;;;37.50;34.90;;;20.70;92.30;;;;;;5014263;28;20189;-91
2023/08/12 11:57:28;;;;;;;40.80;37.97;;;20.70;92.50;;;;;;5013891;28;20170;-90
2023/08/12 11:59:59;;;;;;;31.25;28.75;;;20.70;92.50;;;;;;5013805;28;20197;-89
2023/08/12 12:02:25;;;;;;;29.60;27.40;;;20.60;92.60;;;;;;5013874;28;20162;-89
2023/08/12 12:04:52;;;;;;;28.88;26.65;;;20.60;92.60;;;;;;5013744;28;20202;-89
2023/08/12 12:07:23;;;;;;;27.95;25.75;;;20.50;92.70;;;;;;5013792;28;20197;-89
2023/08/12 12:09:52;;;;;;;27.55;25.40;;;20.60;92.90;;;;;;5013741;28;20170;-89
2023/08/12 12:12:24;;;;;;;27.73;25.38;;;20.70;92.90;;;;;;5013662;28;20263;-89
2023/08/12 12:14:54;;;;;;;25.42;23.42;;;20.60;93.00;;;;;;5013571;28;20189;-89
2023/08/12 12:17:23;;;;;;;25.13;23.25;;;20.60;92.80;;;;;;5013505;28;20676;-89
2023/08/12 12:19:59;;;;;;;24.77;22.88;;;20.60;92.90;;;;;;4996186;28;20184;-89
2023/08/12 12:22:33;;;;;;;23.75;21.83;;;20.70;93.00;;;;;;5013592;28;20161;-89
2023/08/12 12:25:07;;;;;;;25.38;23.27;;;20.70;93.10;;;;;;5013688;28;20185;-90